Time;durP1;ratioP1;P1;durP2;ratioP2;P2;SDS_P1;SDS_P2;PMS_P1;PMS_P2;Temp;Humidity;BMP_temperature;BMP_pressure;BME280_temperature;BME280_humidity;BME280_pressure;Samples;Min_cycle;Max_cycle;Signal;HPM_P1;HPM_P2
2023/12/20 00:01:33;;;;;;;42.33;40.53;;;5.10;99.90;;;;;;4959997;28;20055;-78
2023/12/20 00:03:59;;;;;;;42.00;40.15;;;5.10;99.90;;;;;;4973498;28;20072;-79
2023/12/20 00:06:24;;;;;;;39.72;37.85;;;5.20;99.90;;;;;;4957860;28;20043;-80
2023/12/20 00:08:50;;;;;;;39.35;37.10;;;5.20;99.90;;;;;;4957483;28;20055;-79
2023/12/20 00:11:16;;;;;;;36.97;34.72;;;5.30;99.90;;;;;;4972738;28;20047;-79
2023/12/20 00:13:41;;;;;;;40.33;38.65;;;5.30;99.90;;;;;;4958485;28;20090;-77
2023/12/20 00:16:07;;;;;;;38.13;36.67;;;5.30;99.90;;;;;;4956017;28;20105;-77
2023/12/20 00:18:33;;;;;;;36.90;35.30;;;5.40;99.90;;;;;;4954537;28;20058;-77
2023/12/20 00:20:58;;;;;;;37.72;35.90;;;5.40;99.90;;;;;;4955746;28;20039;-77
2023/12/20 00:23:24;;;;;;;36.53;34.80;;;5.40;99.90;;;;;;4974338;28;20067;-77
2023/12/20 00:25:50;;;;;;;34.72;33.33;;;5.40;99.90;;;;;;4956411;28;20054;-78
2023/12/20 00:28:16;;;;;;;33.58;32.00;;;5.30;99.90;;;;;;4957405;28;20047;-78
2023/12/20 00:30:41;;;;;;;34.00;32.45;;;5.40;99.90;;;;;;4957437;28;20031;-78
2023/12/20 00:33:07;;;;;;;32.63;31.15;;;5.40;99.90;;;;;;4940831;28;20047;-77
2023/12/20 00:35:33;;;;;;;32.00;30.58;;;5.30;99.90;;;;;;4957466;28;20107;-78
2023/12/20 00:37:59;;;;;;;31.60;30.25;;;5.30;99.90;;;;;;4957145;28;20399;-77
2023/12/20 00:40:24;;;;;;;29.70;28.25;;;5.30;99.90;;;;;;4958797;28;20043;-78
2023/12/20 00:42:50;;;;;;;30.85;29.10;;;5.30;99.90;;;;;;4960200;28;20051;-79
2023/12/20 00:45:16;;;;;;;29.45;27.67;;;5.20;99.90;;;;;;4960537;28;20055;-77
2023/12/20 00:47:41;;;;;;;30.10;28.70;;;5.20;99.90;;;;;;4961027;28;20073;-78
2023/12/20 00:50:08;;;;;;;29.40;28.10;;;5.20;99.90;;;;;;4959770;28;20106;-76
2023/12/20 00:52:33;;;;;;;29.88;28.67;;;5.20;99.90;;;;;;4929274;28;20115;-78
2023/12/20 00:54:59;;;;;;;29.30;27.70;;;5.20;99.90;;;;;;4931561;28;20067;-78
2023/12/20 00:57:25;;;;;;;27.85;26.48;;;5.10;99.90;;;;;;4944874;28;20093;-80
2023/12/20 00:59:51;;;;;;;30.40;29.30;;;5.10;99.90;;;;;;4959658;28;20133;-78
2023/12/20 01:02:16;;;;;;;31.38;29.73;;;5.10;99.90;;;;;;4960960;28;20059;-78
2023/12/20 01:04:43;;;;;;;33.60;32.10;;;5.00;99.90;;;;;;4961671;28;20043;-77
2023/12/20 01:07:09;;;;;;;32.35;30.90;;;5.00;99.90;;;;;;4927937;28;20063;-77
2023/12/20 01:09:34;;;;;;;32.95;31.48;;;5.00;99.90;;;;;;4960717;28;20054;-78
2023/12/20 01:12:00;;;;;;;33.60;32.05;;;5.00;99.90;;;;;;4943214;28;20054;-76
2023/12/20 01:14:26;;;;;;;32.88;31.35;;;5.00;99.90;;;;;;4944648;28;20043;-77
2023/12/20 01:16:51;;;;;;;33.50;31.73;;;5.00;99.90;;;;;;4943098;28;20046;-77
2023/12/20 01:19:17;;;;;;;31.80;30.52;;;5.10;99.90;;;;;;4944822;28;20122;-77
2023/12/20 01:21:43;;;;;;;33.63;31.75;;;5.00;99.90;;;;;;4959760;28;20081;-76
2023/12/20 01:24:09;;;;;;;33.00;31.55;;;5.10;99.90;;;;;;4960254;28;20047;-76
2023/12/20 01:26:34;;;;;;;31.85;30.30;;;5.10;99.90;;;;;;4944082;28;20031;-77
2023/12/20 01:29:00;;;;;;;32.47;30.55;;;5.10;99.90;;;;;;4927619;28;20227;-79
2023/12/20 01:31:27;;;;;;;31.77;30.30;;;5.20;99.90;;;;;;4960622;28;20073;-78
2023/12/20 01:33:53;;;;;;;30.33;28.92;;;5.20;99.90;;;;;;4943447;28;20115;-78
2023/12/20 01:36:19;;;;;;;31.95;30.42;;;5.20;99.90;;;;;;4960886;28;20082;-77
2023/12/20 01:38:45;;;;;;;29.00;27.83;;;5.20;99.90;;;;;;4959377;28;20054;-79
2023/12/20 01:41:11;;;;;;;31.35;29.85;;;5.10;99.90;;;;;;4959437;28;20126;-78
2023/12/20 01:43:36;;;;;;;29.73;28.27;;;5.10;99.90;;;;;;4960077;28;20411;-77
2023/12/20 01:46:03;;;;;;;32.28;30.67;;;5.10;99.90;;;;;;4927479;28;20043;-79
2023/12/20 01:48:32;;;;;;;32.03;30.25;;;5.10;99.90;;;;;;4959943;28;20106;-76
2023/12/20 01:50:59;;;;;;;30.55;28.88;;;5.10;99.90;;;;;;4957687;28;20523;-77
2023/12/20 01:53:26;;;;;;;31.73;29.33;;;5.10;99.90;;;;;;4960429;28;20039;-77
2023/12/20 01:55:56;;;;;;;30.02;28.42;;;5.10;99.90;;;;;;4958821;28;20090;-78
2023/12/20 01:58:25;;;;;;;31.48;30.10;;;5.20;99.90;;;;;;4960812;28;20054;-77
2023/12/20 02:00:51;;;;;;;28.95;27.85;;;5.10;99.90;;;;;;4963471;28;20066;-81
2023/12/20 02:03:18;;;;;;;29.95;28.80;;;5.10;99.90;;;;;;4945180;28;20138;-78
2023/12/20 02:05:45;;;;;;;33.30;31.73;;;5.10;99.90;;;;;;4976803;28;20521;-76
2023/12/20 02:08:11;;;;;;;34.28;32.78;;;5.10;99.90;;;;;;4958763;28;20051;-79
2023/12/20 02:10:37;;;;;;;33.80;32.00;;;5.10;99.90;;;;;;4944268;28;20054;-78
2023/12/20 02:13:04;;;;;;;32.40;31.10;;;5.10;99.90;;;;;;4930145;28;20127;-77
2023/12/20 02:15:30;;;;;;;33.42;31.70;;;5.10;99.90;;;;;;4959246;28;20047;-75
2023/12/20 02:17:56;;;;;;;33.35;31.40;;;5.10;99.90;;;;;;4959681;28;20101;-77
2023/12/20 02:20:22;;;;;;;32.25;30.73;;;5.10;99.90;;;;;;4959142;28;20089;-76
2023/12/20 02:22:47;;;;;;;32.50;30.85;;;5.10;99.90;;;;;;4960464;28;20115;-75
2023/12/20 02:25:13;;;;;;;35.58;33.83;;;5.10;99.90;;;;;;4958196;28;20047;-77
2023/12/20 02:27:39;;;;;;;32.90;31.30;;;5.20;99.90;;;;;;4944004;28;20051;-77
2023/12/20 02:30:06;;;;;;;33.97;32.10;;;5.30;99.90;;;;;;4958370;28;20071;-76
2023/12/20 02:32:32;;;;;;;33.70;31.85;;;5.20;99.90;;;;;;4943221;28;20047;-78
2023/12/20 02:34:58;;;;;;;26.55;25.25;;;5.20;99.90;;;;;;4943440;28;20058;-76
2023/12/20 02:37:24;;;;;;;27.52;26.15;;;5.30;99.90;;;;;;4942733;28;20058;-75
2023/12/20 02:39:49;;;;;;;31.88;30.52;;;5.30;99.90;;;;;;4943888;29;20046;-77
2023/12/20 02:42:15;;;;;;;29.77;28.15;;;5.40;99.90;;;;;;4957725;28;20051;-79
2023/12/20 02:44:41;;;;;;;31.80;30.25;;;5.40;99.90;;;;;;4960578;28;20138;-76
2023/12/20 02:47:07;;;;;;;32.83;30.92;;;5.60;99.90;;;;;;4960391;28;20384;-76
2023/12/20 02:49:32;;;;;;;32.97;31.27;;;5.50;99.90;;;;;;4961501;28;20054;-79
2023/12/20 02:51:58;;;;;;;34.17;32.75;;;5.50;99.90;;;;;;4960949;28;20046;-78
2023/12/20 02:54:24;;;;;;;34.72;32.92;;;5.50;99.90;;;;;;4961108;28;20305;-77
2023/12/20 02:56:49;;;;;;;36.83;34.42;;;5.60;99.90;;;;;;4961735;28;20040;-79
2023/12/20 02:59:15;;;;;;;32.88;31.42;;;5.50;99.90;;;;;;4960643;28;20047;-78
2023/12/20 03:01:45;;;;;;;34.15;32.47;;;5.60;99.90;;;;;;4945283;28;20050;-76
2023/12/20 03:04:12;;;;;;;34.50;32.47;;;5.60;99.90;;;;;;4958675;28;20062;-76
2023/12/20 03:06:38;;;;;;;35.35;33.45;;;5.60;99.90;;;;;;4959114;28;20133;-79
2023/12/20 03:09:04;;;;;;;34.30;32.70;;;5.60;99.90;;;;;;4942400;28;20070;-77
2023/12/20 03:11:30;;;;;;;31.60;29.83;;;5.60;99.90;;;;;;4941810;28;20035;-75
2023/12/20 03:13:56;;;;;;;36.10;34.30;;;5.60;99.90;;;;;;4950249;28;20126;-77
2023/12/20 03:16:22;;;;;;;34.47;32.33;;;5.60;99.90;;;;;;4958103;28;20047;-76
2023/12/20 03:18:47;;;;;;;32.45;30.95;;;5.60;99.90;;;;;;4958822;28;20061;-77
2023/12/20 03:21:13;;;;;;;32.45;30.02;;;5.60;99.90;;;;;;4957545;28;20062;-76
2023/12/20 03:23:39;;;;;;;30.67;29.23;;;5.60;99.90;;;;;;4942673;28;20051;-76
2023/12/20 03:26:08;;;;;;;30.13;28.20;;;5.70;99.90;;;;;;4942441;28;20377;-77
2023/12/20 03:28:36;;;;;;;28.45;26.75;;;5.70;99.90;;;;;;4958473;28;20053;-76
2023/12/20 03:31:02;;;;;;;28.77;27.08;;;5.70;99.90;;;;;;4942624;28;20078;-78
2023/12/20 03:33:28;;;;;;;29.42;27.80;;;5.70;99.90;;;;;;4957437;28;20111;-77
2023/12/20 03:35:54;;;;;;;26.98;25.85;;;5.60;99.90;;;;;;4943247;28;20055;-76
2023/12/20 03:38:20;;;;;;;28.58;27.23;;;5.60;99.90;;;;;;4957903;28;20047;-79
2023/12/20 03:40:46;;;;;;;29.00;27.40;;;5.60;99.90;;;;;;4958296;28;20097;-79
2023/12/20 03:43:11;;;;;;;29.23;27.70;;;5.60;99.90;;;;;;4958043;28;20051;-77
2023/12/20 03:45:37;;;;;;;29.90;28.13;;;5.60;99.90;;;;;;4926177;28;20063;-79
2023/12/20 03:48:03;;;;;;;30.20;28.20;;;5.60;99.90;;;;;;4943058;28;20039;-75
2023/12/20 03:50:29;;;;;;;29.42;27.92;;;5.60;99.90;;;;;;4957216;28;20051;-79
2023/12/20 03:52:54;;;;;;;27.58;26.35;;;5.60;99.90;;;;;;4958928;28;20081;-78
2023/12/20 03:55:20;;;;;;;29.85;28.23;;;5.60;99.90;;;;;;4942455;28;20050;-76
2023/12/20 03:57:46;;;;;;;30.73;29.33;;;5.60;99.90;;;;;;4958755;28;20055;-75
2023/12/20 04:00:12;;;;;;;31.08;29.42;;;5.60;99.90;;;;;;4957798;28;20052;-76
2023/12/20 04:02:39;;;;;;;32.72;30.88;;;5.60;99.90;;;;;;4958267;28;20965;-78
2023/12/20 04:05:06;;;;;;;32.05;30.25;;;5.70;99.90;;;;;;4959815;28;20062;-78
2023/12/20 04:07:32;;;;;;;35.13;33.08;;;5.70;99.90;;;;;;4957647;29;20048;-76
2023/12/20 04:09:58;;;;;;;33.53;31.77;;;5.70;99.90;;;;;;4958721;28;20047;-78
2023/12/20 04:12:23;;;;;;;34.63;32.25;;;5.70;99.90;;;;;;4956271;28;20569;-80
2023/12/20 04:14:49;;;;;;;30.27;29.05;;;5.80;99.90;;;;;;4972357;28;20087;-77
2023/12/20 04:17:15;;;;;;;33.90;31.92;;;5.70;99.90;;;;;;4961092;28;20043;-77
2023/12/20 04:19:44;;;;;;;32.85;30.98;;;5.80;99.90;;;;;;4960645;28;20045;-79
2023/12/20 04:22:10;;;;;;;31.33;29.75;;;5.80;99.90;;;;;;4929998;28;20380;-76
2023/12/20 04:24:36;;;;;;;30.42;29.02;;;5.80;99.90;;;;;;4960770;28;20104;-77
2023/12/20 04:27:02;;;;;;;30.83;28.80;;;5.80;99.90;;;;;;4961832;28;20051;-77
2023/12/20 04:29:28;;;;;;;31.30;29.35;;;5.70;99.90;;;;;;4943540;28;20039;-77
2023/12/20 04:31:54;;;;;;;29.50;27.92;;;5.70;99.90;;;;;;4944381;28;20035;-77
2023/12/20 04:34:19;;;;;;;31.02;28.95;;;5.70;99.90;;;;;;4958487;28;20043;-77
2023/12/20 04:36:45;;;;;;;30.98;29.42;;;5.70;99.90;;;;;;4959430;28;20035;-77
2023/12/20 04:39:12;;;;;;;31.17;29.30;;;5.60;99.90;;;;;;4959453;28;20050;-78
2023/12/20 04:41:38;;;;;;;31.33;29.38;;;5.70;99.90;;;;;;4959517;28;20039;-75
2023/12/20 04:44:04;;;;;;;32.58;30.58;;;5.70;99.90;;;;;;4961408;28;20455;-76
2023/12/20 04:46:30;;;;;;;32.42;30.52;;;5.70;99.90;;;;;;4944056;28;20056;-78
2023/12/20 04:48:55;;;;;;;31.52;29.15;;;5.70;99.90;;;;;;4961636;28;20119;-76
2023/12/20 04:51:21;;;;;;;32.28;30.23;;;5.80;99.90;;;;;;4960085;28;20055;-76
2023/12/20 04:53:47;;;;;;;30.17;28.42;;;5.80;99.90;;;;;;4962331;28;20509;-76
2023/12/20 04:56:13;;;;;;;30.98;28.40;;;5.80;99.90;;;;;;4982648;28;20051;-77
2023/12/20 04:58:38;;;;;;;28.90;27.42;;;5.90;99.90;;;;;;4960916;29;20055;-76
2023/12/20 05:01:06;;;;;;;30.42;28.80;;;5.80;99.90;;;;;;4944785;28;20581;-76
2023/12/20 05:03:32;;;;;;;30.10;28.27;;;5.80;99.90;;;;;;4959449;28;20043;-77
2023/12/20 05:05:58;;;;;;;28.77;26.88;;;5.90;99.90;;;;;;4960937;28;20306;-77
2023/12/20 05:08:23;;;;;;;27.13;25.73;;;5.90;99.90;;;;;;4959990;28;20452;-75
2023/12/20 05:10:49;;;;;;;29.35;27.35;;;5.90;99.90;;;;;;4959781;28;20039;-76
2023/12/20 05:13:15;;;;;;;26.70;25.17;;;5.90;99.90;;;;;;4960063;28;20054;-75
2023/12/20 05:15:41;;;;;;;26.67;24.58;;;5.90;99.90;;;;;;4960135;28;20059;-76
2023/12/20 05:18:06;;;;;;;23.42;21.70;;;6.00;99.90;;;;;;4960978;28;20051;-78
2023/12/20 05:20:32;;;;;;;25.08;23.58;;;6.00;99.90;;;;;;4943696;28;20459;-76
2023/12/20 05:22:58;;;;;;;23.10;21.73;;;6.00;99.90;;;;;;4962660;28;20045;-76
2023/12/20 05:25:23;;;;;;;23.77;21.70;;;6.10;99.90;;;;;;4959247;28;20043;-78
2023/12/20 05:27:50;;;;;;;24.25;22.08;;;6.10;99.90;;;;;;4960489;28;20047;-77
2023/12/20 05:30:16;;;;;;;24.45;22.65;;;6.20;99.90;;;;;;4959812;28;20039;-75
2023/12/20 05:32:41;;;;;;;22.67;20.80;;;6.20;99.90;;;;;;4960230;28;20463;-77
2023/12/20 05:35:07;;;;;;;23.20;21.45;;;6.30;99.90;;;;;;4944820;28;20043;-78
2023/12/20 05:37:33;;;;;;;24.08;22.38;;;6.20;99.90;;;;;;4959373;28;20498;-76
2023/12/20 05:39:58;;;;;;;27.38;25.50;;;6.20;99.90;;;;;;4960208;28;20105;-78
2023/12/20 05:42:24;;;;;;;25.67;24.17;;;6.30;99.90;;;;;;4958293;28;20043;-75
2023/12/20 05:44:50;;;;;;;26.02;24.17;;;6.20;99.90;;;;;;4944709;28;20043;-77
2023/12/20 05:47:16;;;;;;;25.95;24.20;;;6.30;99.90;;;;;;4943693;28;20076;-76
2023/12/20 05:49:43;;;;;;;25.83;23.98;;;6.30;99.90;;;;;;4960218;28;20051;-77
2023/12/20 05:52:09;;;;;;;25.27;23.63;;;6.30;99.90;;;;;;4959965;28;20043;-76
2023/12/20 05:54:35;;;;;;;26.05;23.60;;;6.30;99.90;;;;;;4959089;28;20048;-75
2023/12/20 05:57:01;;;;;;;26.20;24.77;;;6.30;99.90;;;;;;4960314;28;20055;-77
2023/12/20 05:59:26;;;;;;;26.10;23.83;;;6.40;99.90;;;;;;4942998;28;20051;-77
2023/12/20 06:01:52;;;;;;;23.67;22.05;;;6.30;99.90;;;;;;4959813;28;20066;-76
2023/12/20 06:04:18;;;;;;;23.98;22.05;;;6.40;99.90;;;;;;4943434;28;20058;-77
2023/12/20 06:06:44;;;;;;;25.35;23.42;;;6.40;99.90;;;;;;4960097;28;20039;-78
2023/12/20 06:09:10;;;;;;;20.17;19.08;;;6.50;99.90;;;;;;4943932;28;20066;-76
2023/12/20 06:11:35;;;;;;;21.60;19.88;;;6.40;99.90;;;;;;4958056;28;20059;-76
2023/12/20 06:14:01;;;;;;;24.38;22.65;;;6.50;99.90;;;;;;4951415;28;20130;-77
2023/12/20 06:16:27;;;;;;;27.30;23.33;;;6.50;99.90;;;;;;4958485;28;20050;-77
2023/12/20 06:18:53;;;;;;;22.83;21.13;;;6.50;99.90;;;;;;4960150;28;20055;-77
2023/12/20 06:21:19;;;;;;;22.90;21.33;;;6.50;99.90;;;;;;4958579;28;20051;-77
2023/12/20 06:23:44;;;;;;;22.95;21.45;;;6.50;99.90;;;;;;4959916;28;20074;-77
2023/12/20 06:26:10;;;;;;;23.73;21.83;;;6.50;99.90;;;;;;4943376;28;20466;-75
2023/12/20 06:28:36;;;;;;;21.00;19.27;;;6.50;99.90;;;;;;4959075;28;20055;-75
2023/12/20 06:31:02;;;;;;;22.35;20.70;;;6.50;99.90;;;;;;4959942;28;20051;-77
2023/12/20 06:33:30;;;;;;;19.00;17.30;;;6.50;99.90;;;;;;4958249;28;20153;-76
2023/12/20 06:35:56;;;;;;;21.73;19.77;;;6.60;99.90;;;;;;4959675;28;20510;-76
2023/12/20 06:38:22;;;;;;;22.15;20.50;;;6.60;99.90;;;;;;4957641;28;20055;-77
2023/12/20 06:40:48;;;;;;;23.13;21.65;;;6.60;99.90;;;;;;4958875;28;20131;-77
2023/12/20 06:43:13;;;;;;;23.27;21.40;;;6.60;99.90;;;;;;4958824;28;20066;-76
2023/12/20 06:45:39;;;;;;;24.17;22.42;;;6.60;99.90;;;;;;4958194;28;20097;-78
2023/12/20 06:48:05;;;;;;;22.55;21.35;;;6.50;99.90;;;;;;4959617;28;20047;-77
2023/12/20 06:50:31;;;;;;;24.30;22.50;;;6.50;99.90;;;;;;4960563;28;20051;-76
2023/12/20 06:52:57;;;;;;;23.73;22.33;;;6.50;99.90;;;;;;4962252;29;20059;-75
2023/12/20 06:55:22;;;;;;;19.98;18.63;;;6.60;99.90;;;;;;4943536;29;20051;-77
2023/12/20 06:57:48;;;;;;;20.73;19.60;;;6.60;99.90;;;;;;4959810;28;20065;-78
2023/12/20 07:00:15;;;;;;;20.92;19.23;;;6.60;99.90;;;;;;4958464;28;20099;-77
2023/12/20 07:02:40;;;;;;;22.90;21.38;;;6.70;99.90;;;;;;4942115;28;20063;-77
2023/12/20 07:05:06;;;;;;;23.23;21.88;;;6.60;99.90;;;;;;4975379;28;20087;-76
2023/12/20 07:07:32;;;;;;;22.00;20.85;;;6.60;99.90;;;;;;4958076;28;20062;-78
2023/12/20 07:09:58;;;;;;;25.10;23.38;;;6.60;99.90;;;;;;4943419;28;20114;-76
2023/12/20 07:12:23;;;;;;;25.63;23.65;;;6.60;99.90;;;;;;4973314;28;20126;-77
2023/12/20 07:14:49;;;;;;;19.20;17.63;;;6.60;99.90;;;;;;4963486;28;20095;-75
2023/12/20 07:17:15;;;;;;;26.70;24.92;;;6.60;99.90;;;;;;4958284;28;20043;-77
2023/12/20 07:19:42;;;;;;;22.60;20.85;;;6.60;99.90;;;;;;4958368;28;20085;-76
2023/12/20 07:22:08;;;;;;;20.05;18.73;;;6.60;99.90;;;;;;4958738;28;20138;-77
2023/12/20 07:24:34;;;;;;;21.92;20.17;;;6.70;99.90;;;;;;4941589;28;20075;-77
2023/12/20 07:27:01;;;;;;;21.30;19.38;;;6.70;99.90;;;;;;4959086;28;20126;-77
2023/12/20 07:29:27;;;;;;;19.92;18.52;;;6.70;99.90;;;;;;4941889;28;20169;-78
2023/12/20 07:31:53;;;;;;;22.10;19.85;;;6.70;99.90;;;;;;4943094;28;20052;-78
2023/12/20 07:34:20;;;;;;;21.48;19.65;;;6.70;99.90;;;;;;4958153;28;20051;-77
2023/12/20 07:36:46;;;;;;;20.77;19.10;;;6.70;99.90;;;;;;4957843;28;20043;-76
2023/12/20 07:39:11;;;;;;;20.00;18.60;;;6.70;99.90;;;;;;4960331;28;20054;-76
2023/12/20 07:41:37;;;;;;;20.02;18.33;;;6.80;99.90;;;;;;4959623;28;20044;-77
2023/12/20 07:44:04;;;;;;;23.02;21.52;;;6.80;99.90;;;;;;4961096;28;20079;-79
2023/12/20 07:46:30;;;;;;;22.83;21.17;;;6.80;99.90;;;;;;4944736;28;20054;-76
2023/12/20 07:48:56;;;;;;;23.73;21.77;;;6.80;99.90;;;;;;4961323;28;20043;-77
2023/12/20 07:51:22;;;;;;;25.27;23.52;;;6.80;99.90;;;;;;4965114;29;20525;-77
2023/12/20 07:53:48;;;;;;;26.48;24.20;;;6.80;99.90;;;;;;4964759;28;20069;-77
2023/12/20 07:56:22;;;;;;;30.13;27.23;;;6.80;99.90;;;;;;4964125;28;20062;-77
2023/12/20 07:58:48;;;;;;;34.60;32.42;;;6.80;99.90;;;;;;4951127;28;20058;-79
2023/12/20 08:01:18;;;;;;;26.60;24.30;;;6.70;99.90;;;;;;4961881;28;20047;-77
2023/12/20 08:03:43;;;;;;;25.38;23.85;;;6.60;99.90;;;;;;4960385;28;20062;-76
2023/12/20 08:06:09;;;;;;;27.63;26.33;;;6.60;99.90;;;;;;4977586;28;20111;-78
2023/12/20 08:08:35;;;;;;;27.50;25.80;;;6.70;99.90;;;;;;4944652;28;20051;-78
2023/12/20 08:11:01;;;;;;;26.40;24.38;;;6.70;99.90;;;;;;4945228;28;20047;-79
2023/12/20 08:13:27;;;;;;;27.42;25.80;;;6.70;99.90;;;;;;4962995;28;20043;-76
2023/12/20 08:15:53;;;;;;;25.38;23.60;;;6.70;99.90;;;;;;4971993;28;20525;-77
2023/12/20 08:18:19;;;;;;;26.52;25.10;;;6.80;99.90;;;;;;4959633;28;20047;-77
2023/12/20 08:20:44;;;;;;;23.77;22.25;;;6.80;99.90;;;;;;4955557;28;20050;-75
2023/12/20 08:23:10;;;;;;;22.13;20.10;;;6.80;99.90;;;;;;4969650;28;20119;-77
2023/12/20 08:25:36;;;;;;;24.15;22.38;;;6.90;99.90;;;;;;4972416;28;20043;-78
2023/12/20 08:28:05;;;;;;;24.15;22.13;;;6.90;99.90;;;;;;4944678;28;20065;-79
2023/12/20 08:30:32;;;;;;;23.40;21.73;;;7.00;99.90;;;;;;4942074;28;20055;-78
2023/12/20 08:33:00;;;;;;;16.90;15.70;;;7.00;99.90;;;;;;4963894;28;20061;-77
2023/12/20 08:35:26;;;;;;;17.85;16.40;;;7.00;99.90;;;;;;4990026;28;20068;-79
2023/12/20 08:37:51;;;;;;;19.80;17.95;;;7.10;99.90;;;;;;4963931;28;20051;-79
2023/12/20 08:40:17;;;;;;;17.02;15.75;;;7.20;99.90;;;;;;5013988;28;20066;-76
2023/12/20 08:42:43;;;;;;;18.60;16.50;;;7.20;99.90;;;;;;4943877;29;20043;-76
2023/12/20 08:45:09;;;;;;;17.67;15.90;;;7.20;99.90;;;;;;5032440;28;20164;-77
2023/12/20 08:47:35;;;;;;;16.88;15.18;;;7.30;99.90;;;;;;5078721;28;20611;-77
2023/12/20 08:50:02;;;;;;;14.70;13.35;;;7.30;99.90;;;;;;5044248;28;20049;-76
2023/12/20 08:52:29;;;;;;;14.05;12.00;;;7.30;99.90;;;;;;5039022;28;20043;-76
2023/12/20 08:54:55;;;;;;;15.50;13.30;;;7.40;99.90;;;;;;5040203;28;20049;-76
2023/12/20 08:57:24;;;;;;;15.43;13.88;;;7.40;99.90;;;;;;5079096;28;20052;-76
2023/12/20 08:59:50;;;;;;;13.43;12.20;;;7.40;99.90;;;;;;5076721;28;20044;-75
2023/12/20 09:02:19;;;;;;;11.32;10.32;;;7.40;99.90;;;;;;5078109;28;20057;-79
2023/12/20 09:04:44;;;;;;;13.10;11.88;;;7.40;99.90;;;;;;5011999;28;20560;-79
2023/12/20 09:07:24;;;;;;;13.73;9.73;;;7.50;99.90;;;;;;5027167;28;20039;-77
2023/12/20 09:09:50;;;;;;;10.27;9.18;;;7.50;99.90;;;;;;5045428;28;20048;-76
2023/12/20 09:12:17;;;;;;;13.20;11.82;;;7.50;99.90;;;;;;5060163;28;20159;-77
2023/12/20 09:14:42;;;;;;;11.55;9.55;;;7.50;99.90;;;;;;4984661;28;20513;-74
2023/12/20 09:17:09;;;;;;;12.70;11.00;;;7.50;99.90;;;;;;4939480;28;20082;-78
2023/12/20 09:19:35;;;;;;;13.30;11.13;;;7.50;99.90;;;;;;4998298;28;20049;-79
2023/12/20 09:22:01;;;;;;;10.70;9.75;;;7.50;99.90;;;;;;5077799;28;20508;-76
2023/12/20 09:24:27;;;;;;;10.32;9.23;;;7.50;99.90;;;;;;5026688;28;20107;-77
2023/12/20 10:28:21;;;;;;;15.00;14.40;;;5.40;99.90;;;;;;5123556;27;20354;-76
2023/12/20 10:30:47;;;;;;;13.45;12.95;;;5.50;99.90;;;;;;5093891;28;20043;-77
2023/12/20 10:33:12;;;;;;;14.25;13.27;;;5.50;99.90;;;;;;5134035;27;20050;-81
2023/12/20 10:35:39;;;;;;;15.57;14.77;;;5.50;99.90;;;;;;5123227;28;20047;-77
2023/12/20 10:38:06;;;;;;;14.70;13.80;;;5.50;99.90;;;;;;5103645;22;20048;-78
2023/12/20 10:40:36;;;;;;;14.10;13.55;;;5.90;99.90;;;;;;5049654;28;20493;-80
2023/12/20 10:43:03;;;;;;;14.43;13.57;;;5.50;99.90;;;;;;5032436;28;20084;-81
2023/12/20 10:45:29;;;;;;;16.95;15.98;;;5.50;99.90;;;;;;5030450;28;20046;-76
2023/12/20 10:47:56;;;;;;;17.45;16.60;;;5.50;99.90;;;;;;5031668;28;20118;-76
2023/12/20 10:50:21;;;;;;;17.05;16.02;;;5.50;99.90;;;;;;5048880;28;20095;-77
2023/12/20 10:52:47;;;;;;;17.50;16.70;;;5.60;99.90;;;;;;5048816;28;20079;-77
2023/12/20 10:55:14;;;;;;;14.98;14.13;;;5.60;99.90;;;;;;5032220;28;20073;-78
2023/12/20 10:57:39;;;;;;;17.27;16.48;;;5.70;99.90;;;;;;5048222;28;20393;-77
2023/12/20 11:00:12;;;;;;;18.15;17.35;;;5.60;99.90;;;;;;5048747;28;20148;-76
2023/12/20 11:02:40;;;;;;;16.50;15.80;;;5.70;99.90;;;;;;5028897;28;20050;-76
2023/12/20 11:05:44;;;;;;;17.17;16.30;;;5.70;99.90;;;;;;5045089;28;20053;-77
2023/12/20 11:08:27;;;;;;;20.15;19.25;;;5.80;99.90;;;;;;5024872;28;20062;-77
2023/12/20 11:11:28;;;;;;;21.90;20.90;;;5.80;99.90;;;;;;5029573;28;20041;-75
2023/12/20 11:14:00;;;;;;;19.67;18.52;;;5.90;99.90;;;;;;5027816;28;20500;-76
2023/12/20 11:16:25;;;;;;;15.82;15.05;;;6.00;99.90;;;;;;5049021;28;20049;-76
2023/12/20 11:18:52;;;;;;;17.42;16.63;;;6.00;99.90;;;;;;5048526;28;20376;-76
2023/12/20 11:21:19;;;;;;;15.13;14.40;;;6.00;99.90;;;;;;5031751;28;20503;-76
2023/12/20 11:23:45;;;;;;;16.80;15.65;;;6.00;99.90;;;;;;5049115;28;20127;-77
2023/12/20 11:26:11;;;;;;;14.48;13.70;;;6.00;99.90;;;;;;5048008;28;20064;-76
2023/12/20 11:28:37;;;;;;;14.00;13.38;;;6.00;99.90;;;;;;5047913;28;20477;-77
2023/12/20 11:31:02;;;;;;;14.23;13.43;;;6.10;99.90;;;;;;5049278;28;20049;-80
2023/12/20 11:33:36;;;;;;;11.73;10.60;;;6.10;99.90;;;;;;5031406;28;20033;-76
2023/12/20 11:36:02;;;;;;;10.75;9.93;;;6.10;99.90;;;;;;5048139;28;20179;-76
2023/12/20 11:38:37;;;;;;;13.38;12.30;;;6.20;99.90;;;;;;5039341;28;20053;-77
2023/12/20 11:41:06;;;;;;;7.43;6.78;;;6.20;99.90;;;;;;5034515;28;20053;-76
2023/12/20 11:43:39;;;;;;;8.15;7.55;;;6.30;99.90;;;;;;5034152;28;20122;-78
2023/12/20 11:46:06;;;;;;;8.60;8.00;;;6.30;99.90;;;;;;5033677;28;20377;-79
2023/12/20 11:48:32;;;;;;;8.13;7.60;;;6.40;99.90;;;;;;5033156;28;20048;-78
2023/12/20 11:50:59;;;;;;;7.88;7.30;;;6.50;99.90;;;;;;4999455;28;20049;-78
2023/12/20 11:53:25;;;;;;;10.00;9.23;;;6.60;99.90;;;;;;5034962;28;20057;-75
2023/12/20 11:55:50;;;;;;;6.25;5.15;;;6.60;99.90;;;;;;5031878;28;20042;-77
2023/12/20 11:58:17;;;;;;;8.63;7.93;;;6.70;99.90;;;;;;5033333;28;20051;-79
2023/12/20 12:00:43;;;;;;;8.30;5.55;;;6.70;99.90;;;;;;5033375;28;20045;-77
2023/12/20 12:03:09;;;;;;;9.35;8.55;;;6.60;99.90;;;;;;5034026;28;20052;-77
2023/12/20 12:05:35;;;;;;;9.18;8.48;;;6.70;99.90;;;;;;5032780;28;20073;-76
2023/12/20 12:08:02;;;;;;;7.82;7.13;;;6.70;99.90;;;;;;5034441;28;20449;-78
2023/12/20 12:10:29;;;;;;;9.10;8.48;;;6.70;99.90;;;;;;5034422;28;20076;-76
2023/12/20 12:12:55;;;;;;;7.75;7.05;;;6.70;99.90;;;;;;5033129;28;20044;-75
2023/12/20 12:15:21;;;;;;;10.73;10.13;;;6.70;99.90;;;;;;5034813;28;20385;-73
2023/12/20 12:17:57;;;;;;;9.45;8.68;;;6.80;99.90;;;;;;5033728;28;20036;-75
2023/12/20 12:20:23;;;;;;;11.05;10.35;;;6.70;99.90;;;;;;5033411;28;20049;-74
2023/12/20 12:23:00;;;;;;;11.48;10.77;;;6.70;99.90;;;;;;5017293;28;20084;-77
2023/12/20 12:25:27;;;;;;;10.70;10.00;;;6.70;99.90;;;;;;5017032;28;20057;-74
2023/12/20 12:27:52;;;;;;;9.65;9.07;;;6.80;99.90;;;;;;5033638;28;20034;-75
2023/12/20 12:30:18;;;;;;;11.73;11.00;;;6.70;99.90;;;;;;5032794;28;20485;-73
2023/12/20 12:32:44;;;;;;;13.80;12.93;;;6.80;99.90;;;;;;5034606;28;20037;-74
2023/12/20 12:35:10;;;;;;;11.30;10.38;;;6.80;99.90;;;;;;5033828;28;20040;-75
2023/12/20 12:37:40;;;;;;;10.27;9.48;;;7.20;99.90;;;;;;5033678;28;20469;-74
2023/12/20 12:40:11;;;;;;;12.80;12.20;;;6.70;99.90;;;;;;5032810;28;20046;-75
2023/12/20 12:42:38;;;;;;;12.00;11.25;;;6.70;99.90;;;;;;5033155;28;20088;-75
2023/12/20 12:45:04;;;;;;;14.02;12.75;;;6.80;99.90;;;;;;5032842;28;20077;-76
2023/12/20 12:47:30;;;;;;;11.52;10.50;;;6.80;99.90;;;;;;5032672;28;20249;-73
2023/12/20 12:49:56;;;;;;;13.50;12.48;;;6.80;99.90;;;;;;5031798;28;20103;-71
2023/12/20 12:52:22;;;;;;;12.32;11.52;;;6.80;99.90;;;;;;5033857;28;20053;-76
2023/12/20 12:54:48;;;;;;;11.75;10.93;;;6.70;99.90;;;;;;5015910;28;20440;-73
2023/12/20 12:57:15;;;;;;;13.02;12.35;;;6.70;99.90;;;;;;5032262;28;20111;-74
2023/12/20 12:59:43;;;;;;;11.05;10.35;;;6.70;99.90;;;;;;5033558;28;20041;-74
2023/12/20 13:02:09;;;;;;;14.10;12.98;;;6.70;99.90;;;;;;5032835;28;20045;-76
2023/12/20 13:04:35;;;;;;;12.35;11.60;;;6.70;99.90;;;;;;5033200;28;20056;-75
2023/12/20 13:07:01;;;;;;;13.27;12.43;;;6.60;99.90;;;;;;5031726;28;20045;-76
2023/12/20 13:09:26;;;;;;;13.32;12.63;;;6.70;99.90;;;;;;5033620;28;20473;-78
2023/12/20 13:11:52;;;;;;;9.55;8.80;;;6.60;99.90;;;;;;5031930;28;20091;-74
2023/12/20 13:14:18;;;;;;;7.75;6.93;;;6.60;99.90;;;;;;5033290;28;20052;-76
2023/12/20 13:16:45;;;;;;;10.48;8.75;;;6.60;99.90;;;;;;5033516;28;20035;-73
2023/12/20 13:19:11;;;;;;;8.05;7.43;;;6.60;99.90;;;;;;5031103;28;20076;-73
2023/12/20 13:21:36;;;;;;;6.47;5.97;;;6.60;99.90;;;;;;5032918;28;20136;-74
2023/12/20 13:24:03;;;;;;;7.80;7.10;;;6.60;99.90;;;;;;5033484;28;20044;-73
2023/12/20 13:26:29;;;;;;;8.32;4.40;;;6.60;99.90;;;;;;5032098;28;20045;-73
2023/12/20 13:28:54;;;;;;;6.10;5.00;;;6.60;99.90;;;;;;5031656;28;20124;-73
2023/12/20 13:31:20;;;;;;;7.80;7.38;;;6.50;99.90;;;;;;5031191;28;20049;-73
2023/12/20 13:33:46;;;;;;;8.27;7.72;;;6.40;99.90;;;;;;5033142;28;20055;-73
2023/12/20 13:36:12;;;;;;;10.98;10.15;;;6.30;99.90;;;;;;5031537;28;20045;-75